createdAt,value
2019-02-15T00:00:59.721Z,25.46
2019-02-15T00:01:59.710Z,24.37
2019-02-15T00:02:59.709Z,24.57
2019-02-15T00:03:59.696Z,24.96
2019-02-15T00:04:59.704Z,24.66
2019-02-15T00:05:59.687Z,25.47
2019-02-15T00:06:59.657Z,25.87
2019-02-15T00:07:59.651Z,24.57
2019-02-15T00:08:59.643Z,24.46
2019-02-15T00:09:59.629Z,25.57
2019-02-15T00:10:59.612Z,24.57
2019-02-15T00:11:59.616Z,25.47
2019-02-15T00:12:59.599Z,25.47
2019-02-15T00:13:59.612Z,25.27
2019-02-15T00:14:59.572Z,24.57
2019-02-15T00:15:59.553Z,25.57
2019-02-15T00:16:59.555Z,25.87
2019-02-15T00:17:59.530Z,25.56
2019-02-15T00:18:59.532Z,25.57
2019-02-15T00:19:59.510Z,25.47
2019-02-15T00:20:59.536Z,25.47
2019-02-15T00:21:59.543Z,25.57
2019-02-15T00:22:59.476Z,24.87
2019-02-15T00:23:59.478Z,25.67
2019-02-15T00:24:59.455Z,24.37
2019-02-15T00:25:59.449Z,25.67
2019-02-15T00:26:59.460Z,24.26
2019-02-15T00:27:59.451Z,24.46
2019-02-15T00:28:59.419Z,25.87
2019-02-15T00:29:59.400Z,25.67
2019-02-15T00:30:59.405Z,25.67
2019-02-15T00:31:59.380Z,25.47
2019-02-15T00:32:59.368Z,24.37
2019-02-15T00:33:59.396Z,25.57
2019-02-15T00:34:59.363Z,24.66
2019-02-15T00:35:59.334Z,24.57
2019-02-15T00:36:59.326Z,24.66
2019-02-15T00:37:59.319Z,25.67
2019-02-15T00:38:59.336Z,24.46
2019-02-15T00:39:59.323Z,25.57
2019-02-15T00:40:59.307Z,24.66
2019-02-15T00:41:59.281Z,24.57
2019-02-15T00:42:59.272Z,25.27
2019-02-15T00:43:59.252Z,25.47
2019-02-15T00:44:59.261Z,25.57
2019-02-15T00:45:59.239Z,25.48
2019-02-15T00:46:59.251Z,25.48
2019-02-15T00:47:59.216Z,25.58
2019-02-15T00:48:59.204Z,25.48
2019-02-15T00:49:59.195Z,25.47
2019-02-15T00:50:59.181Z,24.77
2019-02-15T00:51:59.201Z,25.47
2019-02-15T00:52:59.151Z,25.47
2019-02-15T00:53:59.178Z,25.67
2019-02-15T00:54:59.141Z,24.66
2019-02-15T00:55:59.127Z,24.87
2019-02-15T00:56:59.106Z,24.77
2019-02-15T00:57:59.092Z,24.66
2019-02-15T00:58:59.112Z,24.77
2019-02-15T00:59:59.074Z,25.47
2019-02-15T01:00:59.056Z,24.57
2019-02-15T01:01:59.048Z,25.47
2019-02-15T01:02:59.034Z,24.57
2019-02-15T01:03:59.038Z,24.96
2019-02-15T01:04:59.020Z,25.07
2019-02-15T01:05:59.007Z,25.07
2019-02-15T01:06:58.995Z,25.07
2019-02-15T01:07:58.978Z,25.07
2019-02-15T01:08:58.984Z,25.07
2019-02-15T01:09:59.022Z,25.16
2019-02-15T01:10:58.944Z,25.16
2019-02-15T01:11:58.952Z,24.26
2019-02-15T01:12:58.952Z,24.77
2019-02-15T01:13:58.920Z,24.77
2019-02-15T01:14:58.991Z,25.27
2019-02-15T01:15:58.907Z,25.27
2019-02-15T01:16:58.901Z,24.66
2019-02-15T01:17:58.904Z,25.27
2019-02-15T01:18:58.860Z,25.18
2019-02-15T01:19:58.865Z,25.28
2019-02-15T01:20:58.834Z,24.98
2019-02-15T01:21:59.074Z,24.58
2019-02-15T01:22:58.838Z,24.88
2019-02-15T01:23:58.853Z,24.88
2019-02-15T01:24:58.813Z,24.66
2019-02-15T01:25:58.785Z,25.07
2019-02-15T01:26:58.815Z,25.07
2019-02-15T01:27:58.761Z,25.27
2019-02-15T01:28:58.747Z,24.57
2019-02-15T01:29:58.744Z,24.87
2019-02-15T01:30:58.760Z,24.98
2019-02-15T01:31:58.742Z,24.96
2019-02-15T01:32:58.739Z,24.98
2019-02-15T01:33:58.693Z,25.08
2019-02-15T01:34:58.705Z,25.28
2019-02-15T01:35:58.668Z,24.88
2019-02-15T01:36:58.662Z,24.78
2019-02-15T01:37:58.649Z,24.68
2019-02-15T01:38:58.636Z,24.78
2019-02-15T01:39:58.655Z,24.68
2019-02-15T01:40:58.663Z,24.68
2019-02-15T01:41:58.600Z,24.98
2019-02-15T01:42:58.590Z,25.08
2019-02-15T01:43:58.585Z,25.07
2019-02-15T01:44:58.594Z,25.07
2019-02-15T01:45:58.579Z,25.37
2019-02-15T01:46:58.578Z,25.27
2019-02-15T01:47:58.535Z,25.47
2019-02-15T01:48:58.523Z,25.08
2019-02-15T01:49:58.516Z,25.07
2019-02-15T01:50:58.535Z,25.47
2019-02-15T01:51:58.565Z,25.27
2019-02-15T01:52:58.481Z,25.57
2019-02-15T01:53:58.485Z,24.87
2019-02-15T01:54:58.463Z,24.87
2019-02-15T01:55:58.457Z,24.87
2019-02-15T01:56:58.439Z,24.96
2019-02-15T01:57:58.435Z,24.66
2019-02-15T01:58:58.436Z,24.77
2019-02-15T01:59:58.425Z,24.96
2019-02-15T02:00:58.400Z,24.66
2019-02-15T02:01:58.391Z,25.27
2019-02-15T02:02:58.377Z,24.87
2019-02-15T02:03:58.371Z,24.87
2019-02-15T02:04:58.349Z,24.87
2019-02-15T02:05:58.356Z,24.88
2019-02-15T02:06:58.348Z,25.28
2019-02-15T02:07:58.317Z,24.98
2019-02-15T02:08:58.308Z,24.38
2019-02-15T02:09:58.294Z,24.88
2019-02-15T02:10:58.304Z,24.58
2019-02-15T02:11:58.280Z,25.58
2019-02-15T02:12:58.270Z,25.28
2019-02-15T02:13:58.276Z,24.88
2019-02-15T02:14:58.290Z,24.88
2019-02-15T02:15:58.329Z,24.88
2019-02-15T02:16:58.218Z,24.98
2019-02-15T02:17:58.218Z,24.88
2019-02-15T02:18:58.202Z,24.98
2019-02-15T02:19:58.186Z,24.88
2019-02-15T02:20:58.201Z,24.58
2019-02-15T02:21:58.206Z,24.88
2019-02-15T02:22:58.152Z,24.78
2019-02-15T02:23:58.143Z,24.88
2019-02-15T02:24:58.136Z,25.48
2019-02-15T02:25:58.151Z,25.28
2019-02-15T02:26:58.107Z,25.18
2019-02-15T02:27:58.123Z,24.49
2019-02-15T02:28:58.082Z,24.88
2019-02-15T02:29:58.078Z,24.88
2019-02-15T02:30:58.073Z,24.88
2019-02-15T02:31:58.074Z,25.58
2019-02-15T02:32:58.044Z,25.28
2019-02-15T02:33:58.032Z,24.38
2019-02-15T02:34:58.017Z,24.88
2019-02-15T02:35:58.015Z,24.98
2019-02-15T02:36:57.999Z,24.88
2019-02-15T02:37:57.998Z,24.37
2019-02-15T02:38:57.992Z,24.38
2019-02-15T02:39:57.959Z,24.37
2019-02-15T02:40:57.978Z,24.48
2019-02-15T02:41:57.969Z,24.38
2019-02-15T02:42:57.935Z,24.58
2019-02-15T02:43:59.873Z,24.18
2019-02-15T02:44:57.927Z,24.57
2019-02-15T02:45:57.927Z,24.46
2019-02-15T02:46:57.903Z,24.78
2019-02-15T02:47:57.871Z,24.78
2019-02-15T02:48:57.904Z,24.37
2019-02-15T02:49:57.872Z,24.66
2019-02-15T02:50:57.887Z,24.46
2019-02-15T02:51:58.028Z,24.37
2019-02-15T02:52:57.818Z,24.66
2019-02-15T02:53:57.819Z,24.18
2019-02-15T02:54:57.800Z,24.27
2019-02-15T02:55:57.804Z,24.68
2019-02-15T02:56:57.789Z,24.48
2019-02-15T02:57:57.761Z,24.38
2019-02-15T02:58:57.783Z,24.48
2019-02-15T02:59:57.741Z,24.38
2019-02-15T03:00:57.732Z,24.88
2019-02-15T03:01:57.732Z,24.27
2019-02-15T03:02:57.705Z,24.58
2019-02-15T03:03:57.705Z,24.88
2019-02-15T03:04:57.702Z,24.38
2019-02-15T03:05:57.673Z,24.68
2019-02-15T03:06:57.672Z,24.78
2019-02-15T03:07:57.654Z,24.78
2019-02-15T03:08:57.642Z,24.18
2019-02-15T03:09:57.631Z,24.78
2019-02-15T03:10:57.638Z,24.18
2019-02-15T03:11:57.615Z,24.58
2019-02-15T03:12:57.621Z,24.48
2019-02-15T03:13:57.617Z,24.38
2019-02-15T03:14:57.580Z,24.08
2019-02-15T03:15:57.565Z,24.18
2019-02-15T03:16:57.719Z,24.48
2019-02-15T03:17:57.579Z,24.58
2019-02-15T03:18:57.557Z,24.38
2019-02-15T03:19:57.565Z,24.78
2019-02-15T03:20:57.508Z,24.58
2019-02-15T03:21:57.609Z,24.08
2019-02-15T03:22:57.495Z,24.38
2019-02-15T03:23:57.474Z,24.58
2019-02-15T03:24:57.478Z,24.66
2019-02-15T03:25:57.455Z,24.18
2019-02-15T03:26:57.463Z,24.16
2019-02-15T03:27:57.434Z,24.48
2019-02-15T03:28:57.420Z,24.27
2019-02-15T03:29:57.422Z,24.27
2019-02-15T03:30:57.400Z,24.27
2019-02-15T03:31:57.412Z,24.68
2019-02-15T03:32:57.397Z,24.46
2019-02-15T03:33:57.380Z,24.68
2019-02-15T03:34:57.376Z,24.38
2019-02-15T03:35:57.342Z,24.38
2019-02-15T03:36:57.345Z,24.27
2019-02-15T03:37:57.323Z,24.38
2019-02-15T03:38:57.344Z,24.38
2019-02-15T03:39:57.297Z,24.27
2019-02-15T03:40:57.316Z,23.88
2019-02-15T03:41:57.302Z,24.27
2019-02-15T03:42:57.269Z,23.86
2019-02-15T03:43:57.263Z,24.27
2019-02-15T03:44:57.247Z,24.27
2019-02-15T03:45:57.239Z,24.48
2019-02-15T03:46:57.293Z,24.58
2019-02-15T03:47:57.217Z,24.38
2019-02-15T03:48:57.198Z,24.18
2019-02-15T03:49:57.192Z,24.18
2019-02-15T03:50:57.177Z,24.58
2019-02-15T03:51:57.236Z,24.19
2019-02-15T03:52:57.185Z,24.39
2019-02-15T03:53:57.161Z,24.29
2019-02-15T03:54:57.136Z,24.39
2019-02-15T03:55:57.121Z,24.27
2019-02-15T03:56:57.122Z,24.38
2019-02-15T03:57:57.102Z,24.48
2019-02-15T03:58:57.102Z,24.08
2019-02-15T03:59:57.082Z,24.78
2019-02-15T04:00:57.066Z,24.48
2019-02-15T04:01:57.078Z,24.18
2019-02-15T04:02:57.063Z,24.48
2019-02-15T04:03:57.031Z,24.78
2019-02-15T04:04:57.053Z,24.78
2019-02-15T04:05:57.059Z,24.38
2019-02-15T04:06:57.000Z,24.38
2019-02-15T04:07:56.995Z,24.68
2019-02-15T04:08:56.977Z,24.88
2019-02-15T04:09:56.966Z,24.48
2019-02-15T04:10:56.954Z,24.27
2019-02-15T04:11:56.978Z,24.38
2019-02-15T04:12:56.945Z,24.38
2019-02-15T04:13:56.927Z,24.27
2019-02-15T04:14:56.908Z,24.48
2019-02-15T04:15:56.904Z,24.18
2019-02-15T04:16:56.942Z,24.27
2019-02-15T04:17:56.892Z,24.38
2019-02-15T04:18:56.901Z,24.27
2019-02-15T04:19:56.927Z,24.48
2019-02-15T04:20:56.846Z,24.38
2019-02-15T04:21:56.885Z,24.38
2019-02-15T04:22:56.829Z,24.18
2019-02-15T04:23:56.841Z,24.27
2019-02-15T04:24:56.802Z,24.38
2019-02-15T04:25:56.818Z,24.58
2019-02-15T04:26:56.785Z,24.18
2019-02-15T04:27:56.782Z,24.79
2019-02-15T04:28:56.763Z,24.39
2019-02-15T04:29:56.743Z,24.19
2019-02-15T04:30:56.759Z,24.79
2019-02-15T04:31:56.722Z,24.18
2019-02-15T04:32:56.725Z,24.38
2019-02-15T04:33:56.727Z,24.48
2019-02-15T04:34:56.701Z,24.27
2019-02-15T04:35:56.687Z,24.48
2019-02-15T04:36:56.680Z,24.27
2019-02-15T04:37:56.663Z,24.48
2019-02-15T04:38:56.645Z,24.27
2019-02-15T04:39:56.632Z,24.48
2019-02-15T04:40:56.634Z,24.78
2019-02-15T04:41:56.637Z,24.38
2019-02-15T04:42:56.651Z,24.29
2019-02-15T04:43:56.588Z,24.19
2019-02-15T04:44:56.588Z,24.58
2019-02-15T04:45:56.572Z,24.59
2019-02-15T04:46:56.557Z,24.59
2019-02-15T04:47:56.564Z,24.59
2019-02-15T04:48:56.553Z,24.49
2019-02-15T04:49:56.561Z,24.18
2019-02-15T04:50:56.513Z,24.48
2019-02-15T04:51:56.614Z,24.48
2019-02-15T04:52:56.501Z,24.58
2019-02-15T04:53:56.483Z,24.58
2019-02-15T04:54:56.469Z,24.58
2019-02-15T04:55:56.504Z,24.58
2019-02-15T04:56:56.448Z,24.58
2019-02-15T04:57:56.456Z,24.58
2019-02-15T04:58:56.424Z,24.58
2019-02-15T04:59:56.424Z,24.68
2019-02-15T05:00:56.421Z,24.58
2019-02-15T05:01:56.401Z,24.88
2019-02-15T05:02:56.388Z,24.58
2019-02-15T05:03:56.420Z,24.27
2019-02-15T05:04:56.362Z,24.88
2019-02-15T05:05:56.346Z,24.19
2019-02-15T05:06:56.350Z,24.27
2019-02-15T05:07:56.352Z,24.48
2019-02-15T05:08:56.315Z,24.27
2019-02-15T05:09:56.303Z,24.27
2019-02-15T05:10:56.295Z,24.88
2019-02-15T05:11:56.280Z,24.27
2019-02-15T05:12:56.294Z,24.78
2019-02-15T05:13:56.283Z,24.58
2019-02-15T05:14:56.248Z,24.27
2019-02-15T05:15:56.236Z,24.38
2019-02-15T05:16:56.223Z,24.69
2019-02-15T05:17:56.243Z,24.69
2019-02-15T05:18:56.236Z,24.59
2019-02-15T05:19:56.190Z,24.59
2019-02-15T05:20:56.185Z,24.19
2019-02-15T05:21:56.253Z,23.18
2019-02-15T05:22:56.161Z,23.58
2019-02-15T05:23:56.160Z,24.50
2019-02-15T05:24:56.146Z,23.69
2019-02-15T05:25:56.125Z,24.21
2019-02-15T05:26:56.114Z,24.93
2019-02-15T05:27:56.105Z,24.23
2019-02-15T05:28:56.102Z,24.35
2019-02-15T05:29:56.092Z,25.16
2019-02-15T05:30:56.094Z,26.28
2019-02-15T05:31:56.083Z,25.58
2019-02-15T05:32:56.051Z,25.48
2019-02-15T05:33:56.043Z,26.28
2019-02-15T05:34:56.028Z,25.48
2019-02-15T05:35:56.014Z,25.68
2019-02-15T05:36:56.045Z,25.48
2019-02-15T05:37:55.994Z,25.38
2019-02-15T05:38:55.988Z,26.08
2019-02-15T05:39:55.981Z,25.38
2019-02-15T05:40:55.959Z,25.88
2019-02-15T05:41:55.950Z,25.18
2019-02-15T05:42:55.939Z,24.98
2019-02-15T05:43:55.936Z,24.78
2019-02-15T05:45:03.231Z,25.79
2019-02-15T05:45:56.920Z,25.60
2019-02-15T05:46:55.890Z,25.81
2019-02-15T05:47:55.884Z,24.49
2019-02-15T05:48:55.892Z,25.82
2019-02-15T05:49:55.860Z,25.70
2019-02-15T05:50:55.856Z,25.10
2019-02-15T05:51:55.895Z,25.90
2019-02-15T05:52:55.821Z,25.81
2019-02-15T05:53:55.819Z,26.09
2019-02-15T05:54:55.818Z,25.89
2019-02-15T05:55:55.820Z,25.68
2019-02-15T05:56:55.809Z,25.68
2019-02-15T05:57:55.767Z,24.96
2019-02-15T05:58:55.777Z,25.46
2019-02-15T05:59:55.745Z,25.95
2019-02-15T06:00:55.731Z,25.76
2019-02-15T06:01:55.733Z,24.74
2019-02-15T06:02:55.728Z,25.14
2019-02-15T06:03:55.720Z,24.52
2019-02-15T06:04:55.691Z,24.93
2019-02-15T06:05:55.680Z,24.62
2019-02-15T06:06:55.668Z,24.71
2019-02-15T06:07:55.654Z,24.81
2019-02-15T06:08:55.654Z,24.71
2019-02-15T06:09:55.657Z,24.41
2019-02-15T06:11:06.113Z,24.50
2019-02-15T06:11:56.611Z,24.60
2019-02-15T06:12:55.629Z,24.60
2019-02-15T06:13:55.613Z,24.30
2019-02-15T06:14:55.577Z,24.08
2019-02-15T06:15:55.569Z,24.69
2019-02-15T06:16:55.566Z,24.79
2019-02-15T06:17:55.567Z,24.69
2019-02-15T06:18:55.533Z,24.89
2019-02-15T06:19:55.538Z,24.08
2019-02-15T06:20:55.513Z,24.78
2019-02-15T06:21:55.533Z,24.58
2019-02-15T06:22:55.516Z,24.58
2019-02-15T06:23:55.483Z,24.27
2019-02-15T06:24:55.495Z,24.58
2019-02-15T06:25:55.481Z,24.38
2019-02-15T06:26:55.448Z,24.48
2019-02-15T06:27:55.450Z,24.48
2019-02-15T06:28:55.432Z,24.38
2019-02-15T06:29:55.472Z,24.27
2019-02-15T06:30:55.418Z,24.78
2019-02-15T06:31:55.391Z,24.38
2019-02-15T06:32:55.403Z,24.78
2019-02-15T06:33:55.364Z,24.27
2019-02-15T06:34:55.364Z,24.38
2019-02-15T06:35:55.348Z,24.69
2019-02-15T06:36:55.334Z,24.39
2019-02-15T06:37:55.386Z,24.99
2019-02-15T06:38:55.380Z,24.89
2019-02-15T06:39:55.314Z,24.59
2019-02-15T06:40:55.289Z,25.28
2019-02-15T06:41:55.350Z,25.49
2019-02-15T06:42:55.269Z,25.09
2019-02-15T06:43:55.258Z,24.89
2019-02-15T06:44:55.263Z,25.19
2019-02-15T06:45:55.257Z,25.39
2019-02-15T06:46:55.233Z,24.89
2019-02-15T06:47:55.210Z,25.49
2019-02-15T06:48:55.217Z,24.99
2019-02-15T06:49:55.196Z,24.99
2019-02-15T06:50:55.187Z,25.19
2019-02-15T06:51:55.335Z,24.68
2019-02-15T06:52:55.156Z,24.99
2019-02-15T06:53:55.158Z,24.58
2019-02-15T06:54:55.157Z,24.78
2019-02-15T06:55:55.139Z,25.48
2019-02-15T06:56:55.118Z,25.49
2019-02-15T06:57:55.103Z,25.70
2019-02-15T06:58:55.099Z,24.59
2019-02-15T06:59:55.108Z,25.89
2019-02-15T07:00:55.079Z,24.99
2019-02-15T07:01:55.058Z,25.49
2019-02-15T07:02:55.059Z,25.79
2019-02-15T07:03:55.041Z,25.19
2019-02-15T07:04:55.043Z,25.39
2019-02-15T07:05:55.029Z,25.19
2019-02-15T07:06:55.004Z,25.09
2019-02-15T07:07:55.002Z,25.29
2019-02-15T07:08:54.979Z,25.39
2019-02-15T07:09:55.080Z,25.10
2019-02-15T07:10:54.967Z,26.09
2019-02-15T07:11:54.948Z,24.99
2019-02-15T07:12:54.948Z,26.01
2019-02-15T07:13:54.925Z,26.41
2019-02-15T07:14:54.951Z,25.09
2019-02-15T07:15:54.922Z,25.99
2019-02-15T07:16:55.783Z,25.09
2019-02-15T07:17:54.902Z,24.89
2019-02-15T07:18:54.874Z,25.19
2019-02-15T07:19:54.860Z,24.89
2019-02-15T07:20:54.856Z,24.99
2019-02-15T07:21:59.799Z,24.89
2019-02-15T07:22:54.886Z,25.39
2019-02-15T07:23:54.878Z,26.09
2019-02-15T07:24:54.800Z,25.59
2019-02-15T07:25:54.800Z,25.59
2019-02-15T07:26:54.801Z,25.79
2019-02-15T07:27:54.797Z,25.38
2019-02-15T07:28:54.832Z,25.88
2019-02-15T07:29:54.752Z,25.58
2019-02-15T07:30:54.758Z,25.68
2019-02-15T07:31:54.749Z,25.78
2019-02-15T07:32:54.781Z,25.38
2019-02-15T07:33:54.713Z,25.58
2019-02-15T07:34:54.692Z,25.78
2019-02-15T07:35:54.695Z,25.68
2019-02-15T07:36:54.676Z,25.78
2019-02-15T07:37:54.688Z,25.67
2019-02-15T07:38:54.649Z,25.68
2019-02-15T07:39:54.640Z,25.67
2019-02-15T07:40:54.696Z,25.68
2019-02-15T07:41:54.626Z,26.07
2019-02-15T07:42:54.603Z,26.07
2019-02-15T07:43:54.684Z,26.08
2019-02-15T07:44:54.605Z,25.58
2019-02-15T07:45:54.618Z,25.68
2019-02-15T07:46:54.558Z,25.38
2019-02-15T07:47:54.552Z,25.48
2019-02-15T07:48:54.540Z,25.58
2019-02-15T07:49:54.525Z,25.68
2019-02-15T07:50:54.622Z,25.58
2019-02-15T07:51:54.523Z,25.58
2019-02-15T07:52:54.512Z,26.58
2019-02-15T07:53:54.565Z,26.68
2019-02-15T07:54:54.479Z,26.39
2019-02-15T07:55:54.484Z,26.48
2019-02-15T07:56:54.500Z,26.39
2019-02-15T07:57:54.466Z,26.58
2019-02-15T07:58:54.429Z,26.48
2019-02-15T07:59:54.416Z,26.39
2019-02-15T08:00:54.420Z,26.39
2019-02-15T08:02:01.609Z,26.39
2019-02-15T08:02:55.390Z,26.39
2019-02-15T08:03:54.389Z,26.08
2019-02-15T08:04:54.368Z,26.68
2019-02-15T08:05:54.373Z,26.18
2019-02-15T08:06:54.350Z,26.39
2019-02-15T08:07:54.331Z,26.18
2019-02-15T08:08:54.372Z,26.39
2019-02-15T08:09:54.345Z,26.39
2019-02-15T08:10:54.339Z,26.48
2019-02-15T08:11:54.297Z,26.39
2019-02-15T08:12:54.382Z,26.28
2019-02-15T08:13:54.330Z,26.39
2019-02-15T08:14:54.252Z,26.78
2019-02-15T08:15:54.263Z,26.27
2019-02-15T08:16:54.297Z,26.68
2019-02-15T08:17:54.276Z,26.47
2019-02-15T08:18:54.216Z,25.67
2019-02-15T08:19:54.201Z,26.17
2019-02-15T08:20:54.245Z,25.77
2019-02-15T08:21:54.197Z,25.87
2019-02-15T08:22:54.161Z,26.27
2019-02-15T08:23:54.184Z,26.47
2019-02-15T08:24:54.139Z,26.47
2019-02-15T08:25:54.136Z,26.67
2019-02-15T08:26:54.137Z,26.67
2019-02-15T08:27:54.132Z,25.97
2019-02-15T08:28:54.111Z,26.16
2019-02-15T08:29:54.096Z,26.16
2019-02-15T08:30:54.197Z,26.26
2019-02-15T08:31:54.067Z,26.06
2019-02-15T08:32:54.077Z,25.97
2019-02-15T08:33:54.039Z,25.96
2019-02-15T08:34:54.032Z,26.07
2019-02-15T08:35:54.021Z,25.87
2019-02-15T08:36:54.376Z,26.35
2019-02-15T08:37:54.053Z,26.46
2019-02-15T08:38:54.044Z,26.26
2019-02-15T08:39:53.977Z,27.08
2019-02-15T08:40:54.003Z,26.77
2019-02-15T08:42:01.293Z,26.57
2019-02-15T08:42:56.034Z,26.37
2019-02-15T08:43:53.943Z,26.97
2019-02-15T08:44:53.926Z,27.37
2019-02-15T08:46:00.548Z,27.37
2019-02-15T08:46:54.988Z,27.58
2019-02-15T08:47:53.905Z,27.27
2019-02-15T08:48:54.129Z,26.97
2019-02-15T08:49:53.933Z,26.37
2019-02-15T08:50:53.883Z,26.26
2019-02-15T08:51:58.812Z,28.16
2019-02-15T08:52:55.190Z,28.06
2019-02-15T08:53:53.840Z,27.78
2019-02-15T08:54:53.807Z,27.16
2019-02-15T08:55:53.797Z,27.86
2019-02-15T08:56:53.815Z,27.56
2019-02-15T08:57:53.890Z,27.96
2019-02-15T08:58:53.775Z,27.36
2019-02-15T08:59:53.821Z,27.76
2019-02-15T09:00:53.743Z,27.16
2019-02-15T09:01:53.734Z,27.87
2019-02-15T09:02:53.751Z,28.46
2019-02-15T09:03:53.728Z,28.06
2019-02-15T09:04:53.712Z,27.86
2019-02-15T09:05:53.697Z,28.26
2019-02-15T09:06:53.772Z,27.16
2019-02-15T09:07:53.668Z,27.46
2019-02-15T09:08:53.655Z,27.56
2019-02-15T09:09:53.651Z,27.56
2019-02-15T09:10:53.670Z,27.56
2019-02-15T09:11:53.638Z,27.96
2019-02-15T09:12:53.631Z,27.95
2019-02-15T09:13:53.600Z,28.06
2019-02-15T09:14:53.588Z,27.56
2019-02-15T09:15:53.574Z,27.56
2019-02-15T09:16:53.610Z,27.36
2019-02-15T09:17:53.565Z,27.55
2019-02-15T09:18:53.594Z,27.66
2019-02-15T09:19:53.558Z,27.96
2019-02-15T09:20:53.525Z,27.56
2019-02-15T09:21:53.509Z,27.56
2019-02-15T09:22:53.502Z,27.96
2019-02-15T09:23:53.494Z,27.65
2019-02-15T09:24:53.475Z,27.26
2019-02-15T09:25:53.489Z,27.26
2019-02-15T09:26:53.482Z,27.15
2019-02-15T09:27:53.443Z,27.06
2019-02-15T09:28:53.443Z,27.46
2019-02-15T09:29:53.483Z,28.75
2019-02-15T09:30:53.415Z,28.35
2019-02-15T09:31:53.413Z,27.85
2019-02-15T09:32:53.407Z,28.25
2019-02-15T09:33:53.392Z,27.95
2019-02-15T09:34:53.370Z,27.46
2019-02-15T09:35:53.369Z,27.55
2019-02-15T09:36:53.356Z,27.95
2019-02-15T09:37:53.331Z,27.85
2019-02-15T09:38:53.341Z,28.05
2019-02-15T09:39:53.327Z,28.05
2019-02-15T09:40:53.850Z,27.85
2019-02-15T09:41:53.288Z,27.75
2019-02-15T09:42:53.341Z,27.55
2019-02-15T09:43:53.287Z,27.25
2019-02-15T09:44:53.316Z,27.55
2019-02-15T09:45:53.276Z,28.05
2019-02-15T09:46:53.243Z,27.65
2019-02-15T09:47:53.281Z,27.55
2019-02-15T09:48:53.265Z,27.55
2019-02-15T09:49:53.207Z,27.33
2019-02-15T09:50:53.195Z,27.65
2019-02-15T09:51:53.224Z,27.95
2019-02-15T09:52:53.177Z,27.85
2019-02-15T09:53:53.208Z,27.95
2019-02-15T09:54:53.154Z,27.95
2019-02-15T09:55:53.137Z,27.85
2019-02-15T09:56:53.165Z,27.96
2019-02-15T09:57:53.246Z,27.55
2019-02-15T09:58:53.203Z,27.15
2019-02-15T09:59:53.112Z,27.35
2019-02-15T10:00:53.079Z,26.35
2019-02-15T10:01:53.123Z,26.95
2019-02-15T10:02:53.246Z,26.25
2019-02-15T10:03:53.065Z,26.34
2019-02-15T10:04:53.074Z,26.45
2019-02-15T10:05:53.158Z,27.16
2019-02-15T10:06:53.064Z,26.66
2019-02-15T10:07:53.009Z,26.65
2019-02-15T10:08:53.003Z,26.84
2019-02-15T10:09:53.009Z,26.65
2019-02-15T10:10:53.146Z,26.65
2019-02-15T10:11:53.062Z,26.75
2019-02-15T10:12:52.954Z,26.54
2019-02-15T10:13:52.931Z,26.65
2019-02-15T10:14:53.014Z,26.54
2019-02-15T10:15:52.932Z,26.84
2019-02-15T10:16:52.918Z,26.75
2019-02-15T10:17:52.916Z,26.34
2019-02-15T10:18:52.884Z,26.25
2019-02-15T10:19:52.906Z,26.25
2019-02-15T10:20:52.865Z,26.65
2019-02-15T10:21:57.881Z,26.65
2019-02-15T10:22:52.872Z,26.65
2019-02-15T10:23:52.838Z,26.75
2019-02-15T10:24:52.819Z,26.84
2019-02-15T10:25:52.807Z,26.54
2019-02-15T10:26:52.788Z,26.25
2019-02-15T10:27:52.843Z,26.75
2019-02-15T10:28:52.781Z,26.54
2019-02-15T10:29:52.822Z,26.65
2019-02-15T10:30:52.816Z,26.93
2019-02-15T10:31:52.741Z,26.73
2019-02-15T10:32:52.724Z,26.53
2019-02-15T10:33:52.721Z,26.33
2019-02-15T10:34:52.854Z,26.93
2019-02-15T10:35:52.776Z,26.64
2019-02-15T10:36:52.682Z,26.64
2019-02-15T10:37:52.755Z,26.33
2019-02-15T10:38:52.666Z,26.64
2019-02-15T10:39:52.677Z,26.53
2019-02-15T10:40:52.652Z,26.93
2019-02-15T10:41:52.671Z,26.23
2019-02-15T10:42:52.626Z,26.64
2019-02-15T10:43:52.602Z,26.33
2019-02-15T10:44:52.679Z,26.83
2019-02-15T10:45:52.590Z,26.73
2019-02-15T10:46:52.602Z,26.42
2019-02-15T10:47:52.574Z,27.02
2019-02-15T10:48:52.546Z,26.43
2019-02-15T10:49:52.535Z,25.93
2019-02-15T10:50:52.566Z,26.12
2019-02-15T10:51:52.525Z,25.92
2019-02-15T10:52:52.552Z,26.12
2019-02-15T10:53:52.536Z,26.42
2019-02-15T10:54:52.514Z,26.32
2019-02-15T10:55:52.547Z,26.21
2019-02-15T10:56:52.496Z,24.12
2019-02-15T10:57:52.510Z,25.52
2019-02-15T10:58:52.436Z,26.42
2019-02-15T10:59:52.445Z,26.42
2019-02-15T11:00:52.489Z,25.62
2019-02-15T11:01:52.406Z,25.63
2019-02-15T11:02:52.393Z,25.63
2019-02-15T11:03:52.385Z,26.53
2019-02-15T11:04:52.381Z,25.93
2019-02-15T11:05:52.454Z,27.03
2019-02-15T11:06:52.389Z,25.63
2019-02-15T11:07:52.358Z,26.64
2019-02-15T11:08:52.335Z,27.14
2019-02-15T11:09:52.332Z,27.03
2019-02-15T11:10:52.339Z,27.03
2019-02-15T11:11:52.302Z,26.93
2019-02-15T11:12:52.292Z,26.64
2019-02-15T11:13:52.288Z,26.82
2019-02-15T11:14:52.335Z,26.72
2019-02-15T11:15:52.289Z,26.12
2019-02-15T11:16:52.266Z,25.82
2019-02-15T11:17:52.258Z,26.12
2019-02-15T11:18:52.243Z,26.02
2019-02-15T11:19:52.209Z,26.32
2019-02-15T11:20:52.214Z,26.32
2019-02-15T11:21:52.253Z,26.32
2019-02-15T11:22:52.174Z,25.62
2019-02-15T11:23:52.186Z,26.02
2019-02-15T11:24:52.153Z,26.12
2019-02-15T11:25:52.152Z,26.12
2019-02-15T11:26:52.215Z,26.32
2019-02-15T11:27:52.115Z,26.52
2019-02-15T11:28:52.114Z,25.62
2019-02-15T11:29:52.152Z,25.61
2019-02-15T11:30:52.157Z,25.61
2019-02-15T11:31:52.082Z,26.10
2019-02-15T11:32:52.118Z,25.51
2019-02-15T11:33:52.107Z,25.61
2019-02-15T11:34:52.045Z,25.61
2019-02-15T11:35:52.050Z,25.51
2019-02-15T11:36:52.071Z,25.61
2019-02-15T11:37:52.097Z,25.51
2019-02-15T11:38:52.003Z,25.31
2019-02-15T11:39:52.049Z,25.81
2019-02-15T11:40:52.038Z,25.71
2019-02-15T11:41:52.020Z,25.60
2019-02-15T11:42:51.988Z,25.49
2019-02-15T11:43:51.939Z,25.71
2019-02-15T11:44:51.932Z,25.29
2019-02-15T11:45:51.943Z,24.99
2019-02-15T11:46:56.757Z,25.51
2019-02-15T11:47:52.900Z,25.60
2019-02-15T11:48:51.897Z,25.60
2019-02-15T11:49:51.874Z,25.41
2019-02-15T11:50:51.889Z,25.71
2019-02-15T11:51:51.908Z,25.21
2019-02-15T11:52:51.850Z,25.60
2019-02-15T11:53:51.844Z,25.70
2019-02-15T11:54:51.912Z,25.79
2019-02-15T11:55:51.806Z,25.60
2019-02-15T11:56:51.871Z,25.29
2019-02-15T11:57:51.790Z,25.20
2019-02-15T11:58:51.808Z,25.99
2019-02-15T11:59:51.770Z,25.11
2019-02-15T12:00:51.766Z,25.90
2019-02-15T12:01:51.760Z,25.29
2019-02-15T12:02:51.874Z,25.49
2019-02-15T12:03:51.722Z,26.09
2019-02-15T12:04:51.739Z,24.79
2019-02-15T12:05:51.738Z,24.30
2019-02-15T12:06:51.697Z,24.49
2019-02-15T12:07:51.718Z,25.40
2019-02-15T12:08:51.667Z,24.69
2019-02-15T12:09:51.654Z,24.90
2019-02-15T12:10:51.645Z,25.20
2019-02-15T12:11:51.673Z,25.20
2019-02-15T12:12:51.668Z,24.40
2019-02-15T12:13:51.608Z,24.49
2019-02-15T12:14:51.617Z,25.49
2019-02-15T12:15:51.589Z,24.60
2019-02-15T12:16:51.591Z,25.60
2019-02-15T12:17:51.576Z,25.40
2019-02-15T12:18:51.599Z,25.29
2019-02-15T12:19:51.652Z,25.21
2019-02-15T12:20:51.550Z,24.30
2019-02-15T12:21:51.528Z,25.91
2019-02-15T12:22:51.541Z,25.10
2019-02-15T12:23:51.501Z,25.41
2019-02-15T12:24:51.623Z,25.40
2019-02-15T12:25:51.488Z,25.41
2019-02-15T12:26:51.575Z,25.31
2019-02-15T12:27:51.502Z,24.79
2019-02-15T12:28:51.474Z,24.40
2019-02-15T12:29:51.448Z,24.80
2019-02-15T12:30:51.434Z,25.91
2019-02-15T12:31:51.414Z,25.81
2019-02-15T12:32:51.422Z,24.80
2019-02-15T12:33:51.434Z,25.01
2019-02-15T12:34:51.427Z,25.20
2019-02-15T12:35:51.368Z,25.20
2019-02-15T12:36:51.362Z,24.79
2019-02-15T12:37:51.362Z,24.79
2019-02-15T12:38:51.338Z,25.90
2019-02-15T12:39:51.331Z,24.49
2019-02-15T12:40:51.464Z,24.49
2019-02-15T12:41:51.312Z,25.29
2019-02-15T12:42:51.324Z,25.10
2019-02-15T12:43:51.296Z,25.20
2019-02-15T12:44:51.374Z,24.18
2019-02-15T12:45:51.261Z,25.79
2019-02-15T12:46:51.258Z,24.38
2019-02-15T12:47:51.335Z,24.79
2019-02-15T12:48:51.330Z,24.18
2019-02-15T12:49:51.265Z,24.40
2019-02-15T12:50:51.211Z,24.60
2019-02-15T12:51:51.200Z,24.99
2019-02-15T12:52:51.190Z,24.99